sensor_id;sensor_type;location;lat;lon;timestamp;temperature;humidity
51327;DHT22;37412;52.836;6.362;2023-08-17T00:00:17;16.70;99.90
51327;DHT22;37412;52.836;6.362;2023-08-17T00:03:04;16.60;99.90
51327;DHT22;37412;52.836;6.362;2023-08-17T00:05:50;16.60;99.90
51327;DHT22;37412;52.836;6.362;2023-08-17T00:08:35;16.80;99.90
51327;DHT22;37412;52.836;6.362;2023-08-17T00:11:21;16.60;99.90
51327;DHT22;37412;52.836;6.362;2023-08-17T00:14:07;16.60;99.90
51327;DHT22;37412;52.836;6.362;2023-08-17T00:16:53;16.60;99.90
51327;DHT22;37412;52.836;6.362;2023-08-17T00:19:39;16.60;99.90
51327;DHT22;37412;52.836;6.362;2023-08-17T00:22:25;16.60;99.90
51327;DHT22;37412;52.836;6.362;2023-08-17T00:25:11;16.70;99.90
51327;DHT22;37412;52.836;6.362;2023-08-17T00:27:57;16.70;99.90
51327;DHT22;37412;52.836;6.362;2023-08-17T00:30:43;16.60;99.90
51327;DHT22;37412;52.836;6.362;2023-08-17T00:33:30;16.60;99.90
51327;DHT22;37412;52.836;6.362;2023-08-17T00:36:16;16.60;99.90
51327;DHT22;37412;52.836;6.362;2023-08-17T00:39:02;16.60;99.90
51327;DHT22;37412;52.836;6.362;2023-08-17T00:41:48;16.60;99.90
51327;DHT22;37412;52.836;6.362;2023-08-17T00:44:34;16.90;99.90
51327;DHT22;37412;52.836;6.362;2023-08-17T00:47:20;16.60;99.90
51327;DHT22;37412;52.836;6.362;2023-08-17T00:50:06;16.60;99.90
51327;DHT22;37412;52.836;6.362;2023-08-17T00:52:53;16.60;99.90
51327;DHT22;37412;52.836;6.362;2023-08-17T00:55:40;16.60;99.90
51327;DHT22;37412;52.836;6.362;2023-08-17T00:58:26;16.50;99.90
51327;DHT22;37412;52.836;6.362;2023-08-17T01:01:13;16.50;99.90
51327;DHT22;37412;52.836;6.362;2023-08-17T01:03:58;16.50;99.90
51327;DHT22;37412;52.836;6.362;2023-08-17T01:06:44;16.40;99.90
51327;DHT22;37412;52.836;6.362;2023-08-17T01:09:30;16.40;99.90
51327;DHT22;37412;52.836;6.362;2023-08-17T01:12:24;16.40;99.90
51327;DHT22;37412;52.836;6.362;2023-08-17T01:15:21;16.30;99.90
51327;DHT22;37412;52.836;6.362;2023-08-17T01:18:29;16.30;99.90
51327;DHT22;37412;52.836;6.362;2023-08-17T01:21:17;16.30;99.90
51327;DHT22;37412;52.836;6.362;2023-08-17T01:24:06;16.20;99.90
51327;DHT22;37412;52.836;6.362;2023-08-17T01:26:52;16.20;99.90
51327;DHT22;37412;52.836;6.362;2023-08-17T01:29:38;16.20;99.90
51327;DHT22;37412;52.836;6.362;2023-08-17T01:32:34;16.20;99.90
51327;DHT22;37412;52.836;6.362;2023-08-17T01:35:44;16.10;99.90
51327;DHT22;37412;52.836;6.362;2023-08-17T01:38:32;16.10;99.90
51327;DHT22;37412;52.836;6.362;2023-08-17T01:41:20;16.10;99.90
51327;DHT22;37412;52.836;6.362;2023-08-17T01:44:07;16.00;99.90
51327;DHT22;37412;52.836;6.362;2023-08-17T01:46:53;16.10;99.90
51327;DHT22;37412;52.836;6.362;2023-08-17T01:49:39;16.10;99.90
51327;DHT22;37412;52.836;6.362;2023-08-17T01:52:27;16.10;99.90
51327;DHT22;37412;52.836;6.362;2023-08-17T01:55:14;16.10;99.90
51327;DHT22;37412;52.836;6.362;2023-08-17T01:57:59;16.00;99.90
51327;DHT22;37412;52.836;6.362;2023-08-17T02:00:45;16.00;99.90
51327;DHT22;37412;52.836;6.362;2023-08-17T02:03:31;16.00;99.90
51327;DHT22;37412;52.836;6.362;2023-08-17T02:06:17;16.00;99.90
51327;DHT22;37412;52.836;6.362;2023-08-17T02:09:04;16.00;99.90
51327;DHT22;37412;52.836;6.362;2023-08-17T02:11:50;15.90;99.90
51327;DHT22;37412;52.836;6.362;2023-08-17T02:14:35;16.00;99.90
51327;DHT22;37412;52.836;6.362;2023-08-17T02:17:21;16.00;99.90
51327;DHT22;37412;52.836;6.362;2023-08-17T02:20:08;15.90;99.90
51327;DHT22;37412;52.836;6.362;2023-08-17T02:22:54;15.80;99.90
51327;DHT22;37412;52.836;6.362;2023-08-17T02:25:40;15.80;99.90
51327;DHT22;37412;52.836;6.362;2023-08-17T02:28:26;15.90;99.90
51327;DHT22;37412;52.836;6.362;2023-08-17T02:31:12;15.80;99.90
51327;DHT22;37412;52.836;6.362;2023-08-17T02:33:58;15.80;99.90
51327;DHT22;37412;52.836;6.362;2023-08-17T02:36:46;15.80;99.90
51327;DHT22;37412;52.836;6.362;2023-08-17T02:39:32;15.70;99.90
51327;DHT22;37412;52.836;6.362;2023-08-17T02:42:18;15.80;99.90
51327;DHT22;37412;52.836;6.362;2023-08-17T02:45:04;15.80;99.90
51327;DHT22;37412;52.836;6.362;2023-08-17T02:47:50;15.70;99.90
51327;DHT22;37412;52.836;6.362;2023-08-17T02:50:36;15.70;99.90
51327;DHT22;37412;52.836;6.362;2023-08-17T02:53:22;15.70;99.90
51327;DHT22;37412;52.836;6.362;2023-08-17T02:56:08;15.70;99.90
51327;DHT22;37412;52.836;6.362;2023-08-17T02:58:57;15.70;99.90
51327;DHT22;37412;52.836;6.362;2023-08-17T03:01:45;15.70;99.90
51327;DHT22;37412;52.836;6.362;2023-08-17T03:04:31;15.70;99.90
51327;DHT22;37412;52.836;6.362;2023-08-17T03:07:17;15.60;99.90
51327;DHT22;37412;52.836;6.362;2023-08-17T03:10:03;15.60;99.90
51327;DHT22;37412;52.836;6.362;2023-08-17T03:12:49;15.60;99.90
51327;DHT22;37412;52.836;6.362;2023-08-17T03:15:35;15.60;99.90
51327;DHT22;37412;52.836;6.362;2023-08-17T03:18:25;15.50;99.90
51327;DHT22;37412;52.836;6.362;2023-08-17T03:21:11;15.60;99.90
51327;DHT22;37412;52.836;6.362;2023-08-17T03:23:57;15.60;99.90
51327;DHT22;37412;52.836;6.362;2023-08-17T03:26:43;15.50;99.90
51327;DHT22;37412;52.836;6.362;2023-08-17T03:29:29;15.60;99.90
51327;DHT22;37412;52.836;6.362;2023-08-17T03:32:15;15.50;99.90
51327;DHT22;37412;52.836;6.362;2023-08-17T03:35:01;15.50;99.90
51327;DHT22;37412;52.836;6.362;2023-08-17T03:37:47;15.50;99.90
51327;DHT22;37412;52.836;6.362;2023-08-17T03:40:33;15.50;99.90
51327;DHT22;37412;52.836;6.362;2023-08-17T03:43:18;15.50;99.90
51327;DHT22;37412;52.836;6.362;2023-08-17T03:46:04;15.50;99.90
51327;DHT22;37412;52.836;6.362;2023-08-17T03:48:51;15.50;99.90
51327;DHT22;37412;52.836;6.362;2023-08-17T03:51:37;15.50;99.90
51327;DHT22;37412;52.836;6.362;2023-08-17T03:54:23;15.70;99.90
51327;DHT22;37412;52.836;6.362;2023-08-17T03:57:09;15.40;99.90
51327;DHT22;37412;52.836;6.362;2023-08-17T03:59:55;15.40;99.90
51327;DHT22;37412;52.836;6.362;2023-08-17T04:02:41;15.40;99.90
51327;DHT22;37412;52.836;6.362;2023-08-17T04:05:27;15.40;99.90
51327;DHT22;37412;52.836;6.362;2023-08-17T04:08:13;15.40;99.90
51327;DHT22;37412;52.836;6.362;2023-08-17T04:10:59;15.40;99.90
51327;DHT22;37412;52.836;6.362;2023-08-17T04:13:45;15.40;99.90
51327;DHT22;37412;52.836;6.362;2023-08-17T04:16:32;15.40;99.90
51327;DHT22;37412;52.836;6.362;2023-08-17T04:19:17;15.50;99.90
51327;DHT22;37412;52.836;6.362;2023-08-17T04:22:03;15.50;99.90
51327;DHT22;37412;52.836;6.362;2023-08-17T04:24:50;15.50;99.90
51327;DHT22;37412;52.836;6.362;2023-08-17T04:27:36;15.60;99.90
51327;DHT22;37412;52.836;6.362;2023-08-17T04:30:22;15.60;99.90
51327;DHT22;37412;52.836;6.362;2023-08-17T04:33:08;15.60;99.90
51327;DHT22;37412;52.836;6.362;2023-08-17T04:35:54;15.60;99.90
51327;DHT22;37412;52.836;6.362;2023-08-17T04:38:40;15.60;99.90
51327;DHT22;37412;52.836;6.362;2023-08-17T04:41:26;15.60;99.90
51327;DHT22;37412;52.836;6.362;2023-08-17T04:44:11;15.60;99.90
51327;DHT22;37412;52.836;6.362;2023-08-17T04:46:57;16.00;99.90
51327;DHT22;37412;52.836;6.362;2023-08-17T04:49:43;15.70;99.90
51327;DHT22;37412;52.836;6.362;2023-08-17T04:52:29;15.70;99.90
51327;DHT22;37412;52.836;6.362;2023-08-17T04:55:15;15.70;99.90
51327;DHT22;37412;52.836;6.362;2023-08-17T04:58:01;15.70;99.90
51327;DHT22;37412;52.836;6.362;2023-08-17T05:00:47;15.80;99.90
51327;DHT22;37412;52.836;6.362;2023-08-17T05:03:33;15.80;99.90
51327;DHT22;37412;52.836;6.362;2023-08-17T05:06:19;15.80;99.90
51327;DHT22;37412;52.836;6.362;2023-08-17T05:09:05;15.80;99.90
51327;DHT22;37412;52.836;6.362;2023-08-17T05:11:51;15.90;99.90
51327;DHT22;37412;52.836;6.362;2023-08-17T05:14:37;15.90;99.90
51327;DHT22;37412;52.836;6.362;2023-08-17T05:17:23;15.90;99.90
51327;DHT22;37412;52.836;6.362;2023-08-17T05:20:09;15.90;99.90
51327;DHT22;37412;52.836;6.362;2023-08-17T05:22:55;15.90;99.90
51327;DHT22;37412;52.836;6.362;2023-08-17T05:25:41;16.00;99.90
51327;DHT22;37412;52.836;6.362;2023-08-17T05:28:27;16.00;99.90
51327;DHT22;37412;52.836;6.362;2023-08-17T05:31:13;16.00;99.90
51327;DHT22;37412;52.836;6.362;2023-08-17T05:33:59;16.00;99.90
51327;DHT22;37412;52.836;6.362;2023-08-17T05:36:45;16.10;99.90
51327;DHT22;37412;52.836;6.362;2023-08-17T05:39:30;16.10;99.90
51327;DHT22;37412;52.836;6.362;2023-08-17T05:42:16;16.20;99.90
51327;DHT22;37412;52.836;6.362;2023-08-17T05:45:03;16.30;99.90
51327;DHT22;37412;52.836;6.362;2023-08-17T05:47:49;16.30;99.90
51327;DHT22;37412;52.836;6.362;2023-08-17T05:50:34;16.30;99.90
51327;DHT22;37412;52.836;6.362;2023-08-17T05:53:20;16.40;99.90
51327;DHT22;37412;52.836;6.362;2023-08-17T05:56:06;16.50;99.90
51327;DHT22;37412;52.836;6.362;2023-08-17T05:58:52;16.40;99.90
51327;DHT22;37412;52.836;6.362;2023-08-17T06:01:38;16.50;99.90
51327;DHT22;37412;52.836;6.362;2023-08-17T06:04:24;16.40;99.90
51327;DHT22;37412;52.836;6.362;2023-08-17T06:07:11;16.40;99.90
51327;DHT22;37412;52.836;6.362;2023-08-17T06:09:57;16.40;99.90
51327;DHT22;37412;52.836;6.362;2023-08-17T06:12:42;16.40;99.90
51327;DHT22;37412;52.836;6.362;2023-08-17T06:15:28;16.40;99.90
51327;DHT22;37412;52.836;6.362;2023-08-17T06:18:14;16.40;99.90
51327;DHT22;37412;52.836;6.362;2023-08-17T06:21:00;16.40;99.90
51327;DHT22;37412;52.836;6.362;2023-08-17T06:23:46;16.50;99.90
51327;DHT22;37412;52.836;6.362;2023-08-17T06:26:32;16.50;99.90
51327;DHT22;37412;52.836;6.362;2023-08-17T06:29:18;16.50;99.90
51327;DHT22;37412;52.836;6.362;2023-08-17T06:32:04;16.50;99.90
51327;DHT22;37412;52.836;6.362;2023-08-17T06:34:50;16.50;99.90
51327;DHT22;37412;52.836;6.362;2023-08-17T06:37:36;16.50;99.90
51327;DHT22;37412;52.836;6.362;2023-08-17T06:40:22;16.50;99.90
51327;DHT22;37412;52.836;6.362;2023-08-17T06:43:08;16.60;99.90
51327;DHT22;37412;52.836;6.362;2023-08-17T06:45:54;16.60;99.90
51327;DHT22;37412;52.836;6.362;2023-08-17T06:48:40;16.70;99.90
51327;DHT22;37412;52.836;6.362;2023-08-17T06:51:26;16.50;99.90
51327;DHT22;37412;52.836;6.362;2023-08-17T06:54:12;16.80;99.90
51327;DHT22;37412;52.836;6.362;2023-08-17T06:56:58;16.90;99.90
51327;DHT22;37412;52.836;6.362;2023-08-17T06:59:44;16.90;99.90
51327;DHT22;37412;52.836;6.362;2023-08-17T07:02:32;17.00;99.90
51327;DHT22;37412;52.836;6.362;2023-08-17T07:05:18;17.00;99.90
51327;DHT22;37412;52.836;6.362;2023-08-17T07:08:04;17.00;99.90
51327;DHT22;37412;52.836;6.362;2023-08-17T07:10:50;17.00;99.90
51327;DHT22;37412;52.836;6.362;2023-08-17T07:13:36;17.00;99.90
51327;DHT22;37412;52.836;6.362;2023-08-17T07:16:22;17.10;99.90
51327;DHT22;37412;52.836;6.362;2023-08-17T07:19:08;17.00;99.90
51327;DHT22;37412;52.836;6.362;2023-08-17T07:21:54;17.00;99.90
51327;DHT22;37412;52.836;6.362;2023-08-17T07:24:40;17.10;99.90
51327;DHT22;37412;52.836;6.362;2023-08-17T07:27:26;17.00;99.90
51327;DHT22;37412;52.836;6.362;2023-08-17T07:30:12;17.00;99.90
51327;DHT22;37412;52.836;6.362;2023-08-17T07:32:58;17.00;99.90
51327;DHT22;37412;52.836;6.362;2023-08-17T07:35:44;17.10;99.90
51327;DHT22;37412;52.836;6.362;2023-08-17T07:38:30;17.10;99.90
51327;DHT22;37412;52.836;6.362;2023-08-17T07:41:16;17.00;99.90
51327;DHT22;37412;52.836;6.362;2023-08-17T07:44:02;17.10;99.90
51327;DHT22;37412;52.836;6.362;2023-08-17T07:46:48;17.00;99.90
51327;DHT22;37412;52.836;6.362;2023-08-17T07:49:33;17.10;99.90
51327;DHT22;37412;52.836;6.362;2023-08-17T07:52:19;17.10;99.90
51327;DHT22;37412;52.836;6.362;2023-08-17T07:55:05;17.10;99.90
51327;DHT22;37412;52.836;6.362;2023-08-17T07:57:51;17.10;99.90
51327;DHT22;37412;52.836;6.362;2023-08-17T08:00:37;17.10;99.90
51327;DHT22;37412;52.836;6.362;2023-08-17T08:03:23;17.20;99.90
51327;DHT22;37412;52.836;6.362;2023-08-17T08:06:09;17.20;99.90
51327;DHT22;37412;52.836;6.362;2023-08-17T08:08:55;17.30;99.90
51327;DHT22;37412;52.836;6.362;2023-08-17T08:11:41;17.40;99.90
51327;DHT22;37412;52.836;6.362;2023-08-17T08:14:27;17.40;99.90
51327;DHT22;37412;52.836;6.362;2023-08-17T08:17:13;17.40;99.90
51327;DHT22;37412;52.836;6.362;2023-08-17T08:19:58;17.40;99.90
51327;DHT22;37412;52.836;6.362;2023-08-17T08:22:45;17.50;99.90
51327;DHT22;37412;52.836;6.362;2023-08-17T08:25:30;17.50;99.90
51327;DHT22;37412;52.836;6.362;2023-08-17T08:28:16;17.60;99.90
51327;DHT22;37412;52.836;6.362;2023-08-17T08:31:03;17.90;99.90
51327;DHT22;37412;52.836;6.362;2023-08-17T08:33:49;18.30;99.90
51327;DHT22;37412;52.836;6.362;2023-08-17T08:36:35;18.80;99.90
51327;DHT22;37412;52.836;6.362;2023-08-17T08:39:21;19.10;99.90
51327;DHT22;37412;52.836;6.362;2023-08-17T08:42:06;19.50;99.90
51327;DHT22;37412;52.836;6.362;2023-08-17T08:44:53;20.30;99.90
51327;DHT22;37412;52.836;6.362;2023-08-17T08:47:41;20.50;99.90
51327;DHT22;37412;52.836;6.362;2023-08-17T08:50:31;20.70;99.90
51327;DHT22;37412;52.836;6.362;2023-08-17T08:53:18;20.70;99.90
51327;DHT22;37412;52.836;6.362;2023-08-17T08:56:11;20.90;99.90
51327;DHT22;37412;52.836;6.362;2023-08-17T08:59:01;21.30;99.90
51327;DHT22;37412;52.836;6.362;2023-08-17T09:01:47;21.70;99.90
51327;DHT22;37412;52.836;6.362;2023-08-17T09:04:33;21.80;99.90
51327;DHT22;37412;52.836;6.362;2023-08-17T09:07:21;21.60;99.90
51327;DHT22;37412;52.836;6.362;2023-08-17T09:10:09;21.40;99.90
51327;DHT22;37412;52.836;6.362;2023-08-17T09:12:55;21.20;99.90
51327;DHT22;37412;52.836;6.362;2023-08-17T09:15:41;21.00;99.90
51327;DHT22;37412;52.836;6.362;2023-08-17T09:18:27;20.80;99.90
51327;DHT22;37412;52.836;6.362;2023-08-17T09:21:23;20.50;99.90
51327;DHT22;37412;52.836;6.362;2023-08-17T09:24:09;20.20;99.90
51327;DHT22;37412;52.836;6.362;2023-08-17T09:26:55;20.00;99.90
51327;DHT22;37412;52.836;6.362;2023-08-17T09:29:44;19.80;99.90
51327;DHT22;37412;52.836;6.362;2023-08-17T09:32:32;19.60;99.90
51327;DHT22;37412;52.836;6.362;2023-08-17T09:35:18;19.40;99.90
51327;DHT22;37412;52.836;6.362;2023-08-17T09:38:04;19.30;99.90
51327;DHT22;37412;52.836;6.362;2023-08-17T09:40:50;19.10;99.90
51327;DHT22;37412;52.836;6.362;2023-08-17T09:43:36;19.20;99.90
51327;DHT22;37412;52.836;6.362;2023-08-17T09:46:22;19.00;99.90
51327;DHT22;37412;52.836;6.362;2023-08-17T09:49:09;19.00;99.90
51327;DHT22;37412;52.836;6.362;2023-08-17T09:51:59;19.00;99.90
51327;DHT22;37412;52.836;6.362;2023-08-17T09:54:46;19.10;99.90
51327;DHT22;37412;52.836;6.362;2023-08-17T09:57:34;19.00;99.90
51327;DHT22;37412;52.836;6.362;2023-08-17T10:00:20;19.00;99.90
51327;DHT22;37412;52.836;6.362;2023-08-17T10:03:06;19.00;99.90
51327;DHT22;37412;52.836;6.362;2023-08-17T10:05:58;19.10;99.90
51327;DHT22;37412;52.836;6.362;2023-08-17T10:08:48;19.20;99.90
51327;DHT22;37412;52.836;6.362;2023-08-17T10:11:37;19.20;99.90
51327;DHT22;37412;52.836;6.362;2023-08-17T10:14:29;19.20;99.90
51327;DHT22;37412;52.836;6.362;2023-08-17T10:17:22;19.30;99.90
51327;DHT22;37412;52.836;6.362;2023-08-17T10:20:10;19.40;99.90
51327;DHT22;37412;52.836;6.362;2023-08-17T10:23:11;19.30;99.90
51327;DHT22;37412;52.836;6.362;2023-08-17T10:26:00;19.30;99.90
51327;DHT22;37412;52.836;6.362;2023-08-17T10:28:48;19.50;99.90
51327;DHT22;37412;52.836;6.362;2023-08-17T10:31:34;19.50;99.90
51327;DHT22;37412;52.836;6.362;2023-08-17T10:34:21;19.50;99.90
51327;DHT22;37412;52.836;6.362;2023-08-17T10:37:07;19.70;99.90
51327;DHT22;37412;52.836;6.362;2023-08-17T10:39:53;19.70;99.90
51327;DHT22;37412;52.836;6.362;2023-08-17T10:42:39;19.90;99.90
51327;DHT22;37412;52.836;6.362;2023-08-17T10:45:30;20.00;99.90
51327;DHT22;37412;52.836;6.362;2023-08-17T10:51:05;20.30;99.90
51327;DHT22;37412;52.836;6.362;2023-08-17T10:53:52;20.40;99.90
51327;DHT22;37412;52.836;6.362;2023-08-17T10:56:40;20.40;99.90
51327;DHT22;37412;52.836;6.362;2023-08-17T10:59:26;20.30;99.90
51327;DHT22;37412;52.836;6.362;2023-08-17T11:02:12;20.30;99.90
51327;DHT22;37412;52.836;6.362;2023-08-17T11:04:58;20.20;99.90
51327;DHT22;37412;52.836;6.362;2023-08-17T11:07:44;20.10;99.90
51327;DHT22;37412;52.836;6.362;2023-08-17T11:10:30;20.10;99.90
51327;DHT22;37412;52.836;6.362;2023-08-17T11:13:16;20.10;99.90
51327;DHT22;37412;52.836;6.362;2023-08-17T11:16:04;20.30;99.90
51327;DHT22;37412;52.836;6.362;2023-08-17T11:18:51;20.30;99.90
51327;DHT22;37412;52.836;6.362;2023-08-17T11:21:37;20.40;99.90
51327;DHT22;37412;52.836;6.362;2023-08-17T11:24:23;20.40;99.90
51327;DHT22;37412;52.836;6.362;2023-08-17T11:27:09;20.30;99.90
51327;DHT22;37412;52.836;6.362;2023-08-17T11:29:55;20.20;99.90
51327;DHT22;37412;52.836;6.362;2023-08-17T11:32:41;20.20;99.90
51327;DHT22;37412;52.836;6.362;2023-08-17T11:35:27;20.10;99.90
51327;DHT22;37412;52.836;6.362;2023-08-17T11:38:13;20.10;99.90
51327;DHT22;37412;52.836;6.362;2023-08-17T11:40:59;20.00;99.90
51327;DHT22;37412;52.836;6.362;2023-08-17T11:43:46;19.90;99.90
51327;DHT22;37412;52.836;6.362;2023-08-17T11:46:32;19.90;99.90
51327;DHT22;37412;52.836;6.362;2023-08-17T11:49:18;19.80;99.90
51327;DHT22;37412;52.836;6.362;2023-08-17T11:52:04;19.80;99.90
51327;DHT22;37412;52.836;6.362;2023-08-17T11:54:50;19.80;99.90
51327;DHT22;37412;52.836;6.362;2023-08-17T11:57:37;19.90;99.90
51327;DHT22;37412;52.836;6.362;2023-08-17T12:00:23;19.90;99.90
51327;DHT22;37412;52.836;6.362;2023-08-17T12:03:15;19.90;99.90
51327;DHT22;37412;52.836;6.362;2023-08-17T12:06:04;19.90;99.90
51327;DHT22;37412;52.836;6.362;2023-08-17T12:08:52;20.00;99.90
51327;DHT22;37412;52.836;6.362;2023-08-17T12:11:38;20.00;99.90
51327;DHT22;37412;52.836;6.362;2023-08-17T12:14:26;20.00;99.90
51327;DHT22;37412;52.836;6.362;2023-08-17T12:17:19;20.00;99.90
51327;DHT22;37412;52.836;6.362;2023-08-17T12:20:06;20.10;99.90
51327;DHT22;37412;52.836;6.362;2023-08-17T12:22:52;20.10;99.90
51327;DHT22;37412;52.836;6.362;2023-08-17T12:25:38;20.10;99.90
51327;DHT22;37412;52.836;6.362;2023-08-17T12:28:24;20.10;99.90
51327;DHT22;37412;52.836;6.362;2023-08-17T12:31:10;20.10;99.90
51327;DHT22;37412;52.836;6.362;2023-08-17T12:33:56;20.10;99.90
51327;DHT22;37412;52.836;6.362;2023-08-17T12:36:43;20.00;99.90
51327;DHT22;37412;52.836;6.362;2023-08-17T12:39:29;20.00;99.90
51327;DHT22;37412;52.836;6.362;2023-08-17T12:42:15;20.00;99.90
51327;DHT22;37412;52.836;6.362;2023-08-17T12:45:02;20.00;99.90
51327;DHT22;37412;52.836;6.362;2023-08-17T12:47:48;20.00;99.90
51327;DHT22;37412;52.836;6.362;2023-08-17T12:50:34;20.00;99.90
51327;DHT22;37412;52.836;6.362;2023-08-17T12:53:20;20.10;99.90
51327;DHT22;37412;52.836;6.362;2023-08-17T12:56:06;20.20;99.90
51327;DHT22;37412;52.836;6.362;2023-08-17T12:58:52;20.30;99.90
51327;DHT22;37412;52.836;6.362;2023-08-17T13:01:38;20.20;99.90
51327;DHT22;37412;52.836;6.362;2023-08-17T13:04:24;20.30;99.90
51327;DHT22;37412;52.836;6.362;2023-08-17T13:07:10;20.30;99.90
51327;DHT22;37412;52.836;6.362;2023-08-17T13:09:56;20.40;99.90
51327;DHT22;37412;52.836;6.362;2023-08-17T13:12:42;20.40;99.90
51327;DHT22;37412;52.836;6.362;2023-08-17T13:15:29;20.40;99.90
51327;DHT22;37412;52.836;6.362;2023-08-17T13:18:15;20.40;99.90
51327;DHT22;37412;52.836;6.362;2023-08-17T13:21:01;20.40;99.90
51327;DHT22;37412;52.836;6.362;2023-08-17T13:23:47;20.40;99.90
51327;DHT22;37412;52.836;6.362;2023-08-17T13:26:33;20.40;99.90
51327;DHT22;37412;52.836;6.362;2023-08-17T13:29:19;20.40;99.90
51327;DHT22;37412;52.836;6.362;2023-08-17T13:32:05;20.30;99.90
51327;DHT22;37412;52.836;6.362;2023-08-17T13:34:51;20.30;99.90
51327;DHT22;37412;52.836;6.362;2023-08-17T13:37:37;20.40;99.90
51327;DHT22;37412;52.836;6.362;2023-08-17T13:40:24;20.50;99.90
51327;DHT22;37412;52.836;6.362;2023-08-17T13:43:09;20.50;99.90
51327;DHT22;37412;52.836;6.362;2023-08-17T13:45:57;20.50;99.90
51327;DHT22;37412;52.836;6.362;2023-08-17T13:48:43;20.80;99.90
51327;DHT22;37412;52.836;6.362;2023-08-17T13:51:29;20.50;99.90
51327;DHT22;37412;52.836;6.362;2023-08-17T13:54:15;20.60;99.90
51327;DHT22;37412;52.836;6.362;2023-08-17T13:57:01;20.60;99.90
51327;DHT22;37412;52.836;6.362;2023-08-17T13:59:47;20.50;99.90
51327;DHT22;37412;52.836;6.362;2023-08-17T14:02:33;20.70;99.90
51327;DHT22;37412;52.836;6.362;2023-08-17T14:05:19;20.40;99.90
51327;DHT22;37412;52.836;6.362;2023-08-17T14:08:05;20.40;99.90
51327;DHT22;37412;52.836;6.362;2023-08-17T14:10:52;20.40;99.90
51327;DHT22;37412;52.836;6.362;2023-08-17T14:13:38;20.40;99.90
51327;DHT22;37412;52.836;6.362;2023-08-17T14:16:24;20.40;99.90
51327;DHT22;37412;52.836;6.362;2023-08-17T14:19:10;20.60;99.90
51327;DHT22;37412;52.836;6.362;2023-08-17T14:21:56;20.30;99.90
51327;DHT22;37412;52.836;6.362;2023-08-17T14:24:42;20.40;99.90
51327;DHT22;37412;52.836;6.362;2023-08-17T14:27:29;20.10;99.90
51327;DHT22;37412;52.836;6.362;2023-08-17T14:30:15;20.10;99.90
51327;DHT22;37412;52.836;6.362;2023-08-17T14:33:00;20.10;99.90
51327;DHT22;37412;52.836;6.362;2023-08-17T14:35:46;20.10;99.90
51327;DHT22;37412;52.836;6.362;2023-08-17T14:38:32;20.00;99.90
51327;DHT22;37412;52.836;6.362;2023-08-17T14:41:21;20.10;99.90
51327;DHT22;37412;52.836;6.362;2023-08-17T14:44:07;20.00;99.90
51327;DHT22;37412;52.836;6.362;2023-08-17T14:46:53;20.00;99.90
51327;DHT22;37412;52.836;6.362;2023-08-17T14:49:39;20.00;99.90
51327;DHT22;37412;52.836;6.362;2023-08-17T14:52:25;20.00;99.90
51327;DHT22;37412;52.836;6.362;2023-08-17T14:55:12;19.90;99.90
51327;DHT22;37412;52.836;6.362;2023-08-17T14:57:59;19.90;99.90
51327;DHT22;37412;52.836;6.362;2023-08-17T15:00:45;19.90;99.90
51327;DHT22;37412;52.836;6.362;2023-08-17T15:03:31;19.90;99.90
51327;DHT22;37412;52.836;6.362;2023-08-17T15:06:16;19.90;99.90
51327;DHT22;37412;52.836;6.362;2023-08-17T15:09:03;19.90;99.90
51327;DHT22;37412;52.836;6.362;2023-08-17T15:11:49;19.80;99.90
51327;DHT22;37412;52.836;6.362;2023-08-17T15:14:36;19.80;99.90
51327;DHT22;37412;52.836;6.362;2023-08-17T15:17:22;19.80;99.90
51327;DHT22;37412;52.836;6.362;2023-08-17T15:20:08;19.80;99.90
51327;DHT22;37412;52.836;6.362;2023-08-17T15:22:54;19.80;99.90
51327;DHT22;37412;52.836;6.362;2023-08-17T15:25:40;19.80;99.90
51327;DHT22;37412;52.836;6.362;2023-08-17T15:28:26;19.80;99.90
51327;DHT22;37412;52.836;6.362;2023-08-17T15:31:12;19.80;99.90
51327;DHT22;37412;52.836;6.362;2023-08-17T15:33:58;19.80;99.90
51327;DHT22;37412;52.836;6.362;2023-08-17T15:36:44;19.70;99.90
51327;DHT22;37412;52.836;6.362;2023-08-17T15:39:30;19.70;99.90
51327;DHT22;37412;52.836;6.362;2023-08-17T15:42:16;19.80;99.90
51327;DHT22;37412;52.836;6.362;2023-08-17T15:45:03;19.70;99.90
51327;DHT22;37412;52.836;6.362;2023-08-17T15:47:49;19.70;99.90
51327;DHT22;37412;52.836;6.362;2023-08-17T15:50:34;19.70;99.90
51327;DHT22;37412;52.836;6.362;2023-08-17T15:53:20;19.70;99.90
51327;DHT22;37412;52.836;6.362;2023-08-17T15:56:06;19.70;99.90
51327;DHT22;37412;52.836;6.362;2023-08-17T15:58:52;19.70;99.90
51327;DHT22;37412;52.836;6.362;2023-08-17T16:01:38;19.80;99.90
51327;DHT22;37412;52.836;6.362;2023-08-17T16:04:24;19.80;99.90
51327;DHT22;37412;52.836;6.362;2023-08-17T16:07:10;19.80;99.90
51327;DHT22;37412;52.836;6.362;2023-08-17T16:09:56;19.80;99.90
51327;DHT22;37412;52.836;6.362;2023-08-17T16:12:42;19.80;99.90
51327;DHT22;37412;52.836;6.362;2023-08-17T16:15:27;19.80;99.90
51327;DHT22;37412;52.836;6.362;2023-08-17T16:18:13;19.80;99.90
51327;DHT22;37412;52.836;6.362;2023-08-17T16:20:59;20.00;99.90
51327;DHT22;37412;52.836;6.362;2023-08-17T16:23:45;19.80;99.90
51327;DHT22;37412;52.836;6.362;2023-08-17T16:26:31;19.70;99.90
51327;DHT22;37412;52.836;6.362;2023-08-17T16:29:17;19.70;99.90
51327;DHT22;37412;52.836;6.362;2023-08-17T16:32:03;19.70;99.90
51327;DHT22;37412;52.836;6.362;2023-08-17T16:34:49;19.80;99.90
51327;DHT22;37412;52.836;6.362;2023-08-17T16:37:37;19.70;99.90
51327;DHT22;37412;52.836;6.362;2023-08-17T16:40:23;19.70;99.90
51327;DHT22;37412;52.836;6.362;2023-08-17T16:43:09;19.70;99.90
51327;DHT22;37412;52.836;6.362;2023-08-17T16:45:55;19.80;99.90
51327;DHT22;37412;52.836;6.362;2023-08-17T16:48:41;19.70;99.90
51327;DHT22;37412;52.836;6.362;2023-08-17T16:51:27;19.60;99.90
51327;DHT22;37412;52.836;6.362;2023-08-17T16:54:12;19.60;99.90
51327;DHT22;37412;52.836;6.362;2023-08-17T16:56:58;19.60;99.90
51327;DHT22;37412;52.836;6.362;2023-08-17T16:59:44;19.60;99.90
51327;DHT22;37412;52.836;6.362;2023-08-17T17:02:32;19.60;99.90
51327;DHT22;37412;52.836;6.362;2023-08-17T17:05:18;19.50;99.90
51327;DHT22;37412;52.836;6.362;2023-08-17T17:08:04;19.50;99.90
51327;DHT22;37412;52.836;6.362;2023-08-17T17:10:50;19.50;99.90
51327;DHT22;37412;52.836;6.362;2023-08-17T17:13:36;19.50;99.90
51327;DHT22;37412;52.836;6.362;2023-08-17T17:16:22;19.60;99.90
51327;DHT22;37412;52.836;6.362;2023-08-17T17:19:08;20.30;99.90
51327;DHT22;37412;52.836;6.362;2023-08-17T17:21:54;19.40;99.90
51327;DHT22;37412;52.836;6.362;2023-08-17T17:24:39;19.40;99.90
51327;DHT22;37412;52.836;6.362;2023-08-17T17:27:25;19.40;99.90
51327;DHT22;37412;52.836;6.362;2023-08-17T17:30:11;19.40;99.90
51327;DHT22;37412;52.836;6.362;2023-08-17T17:32:57;19.40;99.90